sensor_id;sensor_type;location;lat;lon;timestamp;temperature;humidity
13268;DHT22;6702;47.068;15.458;2022-12-18T00:01:41;0.80;99.90
13268;DHT22;6702;47.068;15.458;2022-12-18T00:04:44;0.70;99.90
13268;DHT22;6702;47.068;15.458;2022-12-18T00:07:47;0.70;99.90
13268;DHT22;6702;47.068;15.458;2022-12-18T00:10:50;0.60;99.90
13268;DHT22;6702;47.068;15.458;2022-12-18T00:13:56;0.50;99.90
13268;DHT22;6702;47.068;15.458;2022-12-18T00:17:01;0.50;99.90
13268;DHT22;6702;47.068;15.458;2022-12-18T00:20:05;0.50;99.90
13268;DHT22;6702;47.068;15.458;2022-12-18T00:23:08;0.50;99.90
13268;DHT22;6702;47.068;15.458;2022-12-18T00:26:13;0.50;99.90
13268;DHT22;6702;47.068;15.458;2022-12-18T00:29:16;0.50;99.90
13268;DHT22;6702;47.068;15.458;2022-12-18T00:32:21;0.50;99.90
13268;DHT22;6702;47.068;15.458;2022-12-18T00:35:24;0.40;99.90
13268;DHT22;6702;47.068;15.458;2022-12-18T00:38:27;0.40;99.90
13268;DHT22;6702;47.068;15.458;2022-12-18T00:41:31;0.40;99.90
13268;DHT22;6702;47.068;15.458;2022-12-18T00:44:51;0.40;99.90
13268;DHT22;6702;47.068;15.458;2022-12-18T00:47:56;0.30;99.90
13268;DHT22;6702;47.068;15.458;2022-12-18T00:50:59;0.30;99.90
13268;DHT22;6702;47.068;15.458;2022-12-18T00:54:03;0.30;99.90
13268;DHT22;6702;47.068;15.458;2022-12-18T00:57:07;0.30;99.90
13268;DHT22;6702;47.068;15.458;2022-12-18T01:00:12;0.20;99.90
13268;DHT22;6702;47.068;15.458;2022-12-18T01:03:17;0.20;99.90
13268;DHT22;6702;47.068;15.458;2022-12-18T01:06:21;0.10;99.90
13268;DHT22;6702;47.068;15.458;2022-12-18T01:09:25;0.10;99.90
13268;DHT22;6702;47.068;15.458;2022-12-18T01:12:28;0.10;99.90
13268;DHT22;6702;47.068;15.458;2022-12-18T01:15:32;0.10;99.90
13268;DHT22;6702;47.068;15.458;2022-12-18T01:18:36;0.00;99.90
13268;DHT22;6702;47.068;15.458;2022-12-18T01:21:39;0.00;99.90
13268;DHT22;6702;47.068;15.458;2022-12-18T01:24:42;0.00;99.90
13268;DHT22;6702;47.068;15.458;2022-12-18T01:27:45;0.00;99.90
13268;DHT22;6702;47.068;15.458;2022-12-18T01:30:48;0.00;99.90
13268;DHT22;6702;47.068;15.458;2022-12-18T01:33:53;0.00;99.90
13268;DHT22;6702;47.068;15.458;2022-12-18T01:36:57;0.00;99.90
13268;DHT22;6702;47.068;15.458;2022-12-18T01:40:00;0.00;99.90
13268;DHT22;6702;47.068;15.458;2022-12-18T01:43:03;0.00;99.90
13268;DHT22;6702;47.068;15.458;2022-12-18T01:46:07;0.00;99.90
13268;DHT22;6702;47.068;15.458;2022-12-18T01:49:12;0.00;99.90
13268;DHT22;6702;47.068;15.458;2022-12-18T01:52:15;-0.10;99.90
13268;DHT22;6702;47.068;15.458;2022-12-18T01:55:22;0.00;99.90
13268;DHT22;6702;47.068;15.458;2022-12-18T01:58:32;-0.10;99.90
13268;DHT22;6702;47.068;15.458;2022-12-18T02:01:38;-0.10;99.90
13268;DHT22;6702;47.068;15.458;2022-12-18T02:04:43;-0.10;99.90
13268;DHT22;6702;47.068;15.458;2022-12-18T02:07:57;-0.20;99.90
13268;DHT22;6702;47.068;15.458;2022-12-18T02:11:07;-0.20;99.90
13268;DHT22;6702;47.068;15.458;2022-12-18T02:14:20;-0.20;99.90
13268;DHT22;6702;47.068;15.458;2022-12-18T02:17:31;-0.20;99.90
13268;DHT22;6702;47.068;15.458;2022-12-18T02:20:45;-0.20;99.90
13268;DHT22;6702;47.068;15.458;2022-12-18T02:23:56;-0.30;99.90
13268;DHT22;6702;47.068;15.458;2022-12-18T02:27:07;-0.20;99.90
13268;DHT22;6702;47.068;15.458;2022-12-18T02:30:12;-0.20;99.90
13268;DHT22;6702;47.068;15.458;2022-12-18T02:33:17;-0.30;99.90
13268;DHT22;6702;47.068;15.458;2022-12-18T02:36:22;-0.30;99.90
13268;DHT22;6702;47.068;15.458;2022-12-18T02:39:27;-0.30;99.90
13268;DHT22;6702;47.068;15.458;2022-12-18T02:42:33;-0.40;99.90
13268;DHT22;6702;47.068;15.458;2022-12-18T02:45:46;-0.40;99.90
13268;DHT22;6702;47.068;15.458;2022-12-18T02:48:52;-0.40;99.90
13268;DHT22;6702;47.068;15.458;2022-12-18T02:52:03;-0.50;99.90
13268;DHT22;6702;47.068;15.458;2022-12-18T02:55:15;-0.50;99.90
13268;DHT22;6702;47.068;15.458;2022-12-18T02:58:26;-0.50;99.90
13268;DHT22;6702;47.068;15.458;2022-12-18T03:01:34;-0.50;99.90
13268;DHT22;6702;47.068;15.458;2022-12-18T03:04:45;-0.50;99.90
13268;DHT22;6702;47.068;15.458;2022-12-18T03:07:53;-0.50;99.90
13268;DHT22;6702;47.068;15.458;2022-12-18T03:11:02;-0.50;99.90
13268;DHT22;6702;47.068;15.458;2022-12-18T03:14:07;-0.50;99.90
13268;DHT22;6702;47.068;15.458;2022-12-18T03:17:15;-0.50;99.90
13268;DHT22;6702;47.068;15.458;2022-12-18T03:20:21;-0.50;99.90
13268;DHT22;6702;47.068;15.458;2022-12-18T03:23:33;-0.60;99.90
13268;DHT22;6702;47.068;15.458;2022-12-18T03:26:40;-0.70;99.90
13268;DHT22;6702;47.068;15.458;2022-12-18T03:29:48;-0.70;99.90
13268;DHT22;6702;47.068;15.458;2022-12-18T03:32:56;-0.70;99.90
13268;DHT22;6702;47.068;15.458;2022-12-18T03:36:01;-0.70;99.90
13268;DHT22;6702;47.068;15.458;2022-12-18T03:39:04;-0.70;99.90
13268;DHT22;6702;47.068;15.458;2022-12-18T03:42:12;-0.70;99.90
13268;DHT22;6702;47.068;15.458;2022-12-18T03:45:23;-0.70;99.90
13268;DHT22;6702;47.068;15.458;2022-12-18T03:48:31;-0.70;99.90
13268;DHT22;6702;47.068;15.458;2022-12-18T03:51:40;-0.80;99.90
13268;DHT22;6702;47.068;15.458;2022-12-18T03:54:45;-0.70;99.90
13268;DHT22;6702;47.068;15.458;2022-12-18T03:57:49;-0.80;99.90
13268;DHT22;6702;47.068;15.458;2022-12-18T04:00:57;-0.90;99.90
13268;DHT22;6702;47.068;15.458;2022-12-18T04:04:03;-0.90;99.90
13268;DHT22;6702;47.068;15.458;2022-12-18T04:07:08;-0.90;99.90
13268;DHT22;6702;47.068;15.458;2022-12-18T04:10:12;-0.90;99.90
13268;DHT22;6702;47.068;15.458;2022-12-18T04:13:22;-0.90;99.90
13268;DHT22;6702;47.068;15.458;2022-12-18T04:16:27;-0.90;99.90
13268;DHT22;6702;47.068;15.458;2022-12-18T04:19:30;-0.90;99.90
13268;DHT22;6702;47.068;15.458;2022-12-18T04:22:33;-1.00;99.90
13268;DHT22;6702;47.068;15.458;2022-12-18T04:25:37;-1.00;99.90
13268;DHT22;6702;47.068;15.458;2022-12-18T04:28:40;-1.00;99.90
13268;DHT22;6702;47.068;15.458;2022-12-18T04:31:44;-1.00;99.90
13268;DHT22;6702;47.068;15.458;2022-12-18T04:34:48;-1.00;99.90
13268;DHT22;6702;47.068;15.458;2022-12-18T04:37:51;-1.10;99.90
13268;DHT22;6702;47.068;15.458;2022-12-18T04:40:54;-1.10;99.90
13268;DHT22;6702;47.068;15.458;2022-12-18T04:43:57;-1.00;99.90
13268;DHT22;6702;47.068;15.458;2022-12-18T04:47:01;-1.00;99.90
13268;DHT22;6702;47.068;15.458;2022-12-18T04:50:05;-1.00;99.90
13268;DHT22;6702;47.068;15.458;2022-12-18T04:53:08;-1.00;99.90
13268;DHT22;6702;47.068;15.458;2022-12-18T04:56:13;-1.00;99.90
13268;DHT22;6702;47.068;15.458;2022-12-18T04:59:16;-1.10;99.90
13268;DHT22;6702;47.068;15.458;2022-12-18T05:02:21;-1.10;99.90
13268;DHT22;6702;47.068;15.458;2022-12-18T05:05:24;-1.10;99.90
13268;DHT22;6702;47.068;15.458;2022-12-18T05:08:27;-1.10;99.90
13268;DHT22;6702;47.068;15.458;2022-12-18T05:11:30;-1.20;99.90
13268;DHT22;6702;47.068;15.458;2022-12-18T05:14:34;-1.20;99.90
13268;DHT22;6702;47.068;15.458;2022-12-18T05:17:38;-1.30;99.90
13268;DHT22;6702;47.068;15.458;2022-12-18T05:20:41;-1.30;99.90
13268;DHT22;6702;47.068;15.458;2022-12-18T05:23:44;-1.20;99.90
13268;DHT22;6702;47.068;15.458;2022-12-18T05:26:47;-1.20;99.90
13268;DHT22;6702;47.068;15.458;2022-12-18T05:29:51;-1.20;99.90
13268;DHT22;6702;47.068;15.458;2022-12-18T05:32:55;-1.20;99.90
13268;DHT22;6702;47.068;15.458;2022-12-18T05:35:59;-1.20;99.90
13268;DHT22;6702;47.068;15.458;2022-12-18T05:39:03;-1.20;99.90
13268;DHT22;6702;47.068;15.458;2022-12-18T05:42:06;-1.10;99.90
13268;DHT22;6702;47.068;15.458;2022-12-18T05:45:10;-1.20;99.90
13268;DHT22;6702;47.068;15.458;2022-12-18T05:48:15;-1.10;99.90
13268;DHT22;6702;47.068;15.458;2022-12-18T05:51:20;-1.10;99.90
13268;DHT22;6702;47.068;15.458;2022-12-18T05:54:23;-1.10;99.90
13268;DHT22;6702;47.068;15.458;2022-12-18T05:57:27;-1.20;99.90
13268;DHT22;6702;47.068;15.458;2022-12-18T06:00:30;-1.20;99.90
13268;DHT22;6702;47.068;15.458;2022-12-18T06:03:35;-1.30;99.90
13268;DHT22;6702;47.068;15.458;2022-12-18T06:06:39;-1.20;99.90
13268;DHT22;6702;47.068;15.458;2022-12-18T06:09:42;-1.20;99.90
13268;DHT22;6702;47.068;15.458;2022-12-18T06:12:45;-1.20;99.90
13268;DHT22;6702;47.068;15.458;2022-12-18T06:15:48;-1.20;99.90
13268;DHT22;6702;47.068;15.458;2022-12-18T06:18:53;-1.20;99.90
13268;DHT22;6702;47.068;15.458;2022-12-18T06:21:56;-1.20;99.90
13268;DHT22;6702;47.068;15.458;2022-12-18T06:25:00;-1.10;99.90
13268;DHT22;6702;47.068;15.458;2022-12-18T06:28:04;-1.10;99.90
13268;DHT22;6702;47.068;15.458;2022-12-18T06:31:07;-1.10;99.90
13268;DHT22;6702;47.068;15.458;2022-12-18T06:34:12;-1.10;99.90
13268;DHT22;6702;47.068;15.458;2022-12-18T06:37:15;-1.00;99.90
13268;DHT22;6702;47.068;15.458;2022-12-18T06:40:18;-0.80;99.90
13268;DHT22;6702;47.068;15.458;2022-12-18T06:43:22;-0.80;99.90
13268;DHT22;6702;47.068;15.458;2022-12-18T06:46:26;-0.80;99.90
13268;DHT22;6702;47.068;15.458;2022-12-18T06:49:31;-0.70;99.90
13268;DHT22;6702;47.068;15.458;2022-12-18T06:52:34;-0.60;99.90
13268;DHT22;6702;47.068;15.458;2022-12-18T06:55:38;-0.60;99.90
13268;DHT22;6702;47.068;15.458;2022-12-18T06:58:42;-0.50;99.90
13268;DHT22;6702;47.068;15.458;2022-12-18T07:01:45;-0.40;99.90
13268;DHT22;6702;47.068;15.458;2022-12-18T07:04:50;-0.40;99.90
13268;DHT22;6702;47.068;15.458;2022-12-18T07:07:53;-0.40;99.90
13268;DHT22;6702;47.068;15.458;2022-12-18T07:10:56;-0.30;99.90
13268;DHT22;6702;47.068;15.458;2022-12-18T07:13:59;-0.30;99.90
13268;DHT22;6702;47.068;15.458;2022-12-18T07:17:02;-0.30;99.90
13268;DHT22;6702;47.068;15.458;2022-12-18T07:20:09;-0.30;99.90
13268;DHT22;6702;47.068;15.458;2022-12-18T07:23:13;-0.20;99.90
13268;DHT22;6702;47.068;15.458;2022-12-18T07:26:17;-0.10;99.90
13268;DHT22;6702;47.068;15.458;2022-12-18T07:29:21;0.00;99.90
13268;DHT22;6702;47.068;15.458;2022-12-18T07:32:24;0.00;99.90
13268;DHT22;6702;47.068;15.458;2022-12-18T07:35:28;0.10;99.90
13268;DHT22;6702;47.068;15.458;2022-12-18T07:38:32;0.20;99.90
13268;DHT22;6702;47.068;15.458;2022-12-18T07:41:35;0.30;99.90
13268;DHT22;6702;47.068;15.458;2022-12-18T07:44:44;0.30;99.90
13268;DHT22;6702;47.068;15.458;2022-12-18T07:47:47;0.30;99.90
13268;DHT22;6702;47.068;15.458;2022-12-18T07:50:52;0.50;99.90
13268;DHT22;6702;47.068;15.458;2022-12-18T07:53:56;0.60;99.90
13268;DHT22;6702;47.068;15.458;2022-12-18T07:56:59;0.70;99.90
13268;DHT22;6702;47.068;15.458;2022-12-18T08:00:03;0.80;99.90
13268;DHT22;6702;47.068;15.458;2022-12-18T08:03:06;0.90;99.90
13268;DHT22;6702;47.068;15.458;2022-12-18T08:06:11;1.10;99.90
13268;DHT22;6702;47.068;15.458;2022-12-18T08:09:14;1.30;99.90
13268;DHT22;6702;47.068;15.458;2022-12-18T08:12:17;1.40;99.90
13268;DHT22;6702;47.068;15.458;2022-12-18T08:15:20;1.60;99.90
13268;DHT22;6702;47.068;15.458;2022-12-18T08:18:24;1.80;99.90
13268;DHT22;6702;47.068;15.458;2022-12-18T08:21:30;2.10;99.90
13268;DHT22;6702;47.068;15.458;2022-12-18T08:24:33;2.40;99.90
13268;DHT22;6702;47.068;15.458;2022-12-18T08:27:36;2.70;99.90
13268;DHT22;6702;47.068;15.458;2022-12-18T08:30:39;2.90;99.00
13268;DHT22;6702;47.068;15.458;2022-12-18T08:33:44;3.00;98.30
13268;DHT22;6702;47.068;15.458;2022-12-18T08:36:49;2.90;98.30
13268;DHT22;6702;47.068;15.458;2022-12-18T08:39:52;2.70;97.90
13268;DHT22;6702;47.068;15.458;2022-12-18T08:42:55;2.50;98.00
13268;DHT22;6702;47.068;15.458;2022-12-18T08:46:16;2.40;97.50
13268;DHT22;6702;47.068;15.458;2022-12-18T08:49:19;2.20;98.00
13268;DHT22;6702;47.068;15.458;2022-12-18T08:52:24;2.10;98.30
13268;DHT22;6702;47.068;15.458;2022-12-18T08:55:27;2.00;98.60
13268;DHT22;6702;47.068;15.458;2022-12-18T08:58:30;1.90;98.60
13268;DHT22;6702;47.068;15.458;2022-12-18T09:01:33;1.80;98.80
13268;DHT22;6702;47.068;15.458;2022-12-18T09:04:37;1.80;98.60
13268;DHT22;6702;47.068;15.458;2022-12-18T09:07:43;1.80;98.90
13268;DHT22;6702;47.068;15.458;2022-12-18T09:10:49;1.90;98.70
13268;DHT22;6702;47.068;15.458;2022-12-18T09:13:53;1.80;98.80
13268;DHT22;6702;47.068;15.458;2022-12-18T09:16:56;2.00;98.90
13268;DHT22;6702;47.068;15.458;2022-12-18T09:19:59;2.00;98.30
13268;DHT22;6702;47.068;15.458;2022-12-18T09:23:04;1.90;98.90
13268;DHT22;6702;47.068;15.458;2022-12-18T09:26:08;1.90;99.00
13268;DHT22;6702;47.068;15.458;2022-12-18T09:29:11;1.90;99.20
13268;DHT22;6702;47.068;15.458;2022-12-18T09:32:15;1.90;99.50
13268;DHT22;6702;47.068;15.458;2022-12-18T09:35:23;1.90;99.60
13268;DHT22;6702;47.068;15.458;2022-12-18T09:38:27;1.90;99.60
13268;DHT22;6702;47.068;15.458;2022-12-18T09:41:40;1.90;99.40
13268;DHT22;6702;47.068;15.458;2022-12-18T09:44:47;1.90;99.50
13268;DHT22;6702;47.068;15.458;2022-12-18T09:47:52;2.20;99.90
13268;DHT22;6702;47.068;15.458;2022-12-18T09:51:00;2.60;99.90
13268;DHT22;6702;47.068;15.458;2022-12-18T09:54:11;3.00;99.20
13268;DHT22;6702;47.068;15.458;2022-12-18T09:57:18;3.30;98.50
13268;DHT22;6702;47.068;15.458;2022-12-18T10:00:25;3.60;98.30
13268;DHT22;6702;47.068;15.458;2022-12-18T10:03:28;3.50;97.70
13268;DHT22;6702;47.068;15.458;2022-12-18T10:06:37;3.50;97.40
13268;DHT22;6702;47.068;15.458;2022-12-18T10:09:47;3.90;97.40
13268;DHT22;6702;47.068;15.458;2022-12-18T10:13:00;4.20;96.80
13268;DHT22;6702;47.068;15.458;2022-12-18T10:16:11;4.30;96.00
13268;DHT22;6702;47.068;15.458;2022-12-18T10:19:37;4.30;96.50
13268;DHT22;6702;47.068;15.458;2022-12-18T10:22:51;4.60;96.20
13268;DHT22;6702;47.068;15.458;2022-12-18T10:26:03;4.50;95.60
13268;DHT22;6702;47.068;15.458;2022-12-18T10:29:11;4.00;95.60
13268;DHT22;6702;47.068;15.458;2022-12-18T10:32:17;3.80;96.10
13268;DHT22;6702;47.068;15.458;2022-12-18T10:35:23;3.50;96.40
13268;DHT22;6702;47.068;15.458;2022-12-18T10:38:28;3.40;97.20
13268;DHT22;6702;47.068;15.458;2022-12-18T10:41:32;3.50;97.90
13268;DHT22;6702;47.068;15.458;2022-12-18T10:44:36;3.30;97.60
13268;DHT22;6702;47.068;15.458;2022-12-18T10:47:42;2.90;97.90
13268;DHT22;6702;47.068;15.458;2022-12-18T10:50:50;2.50;98.80
13268;DHT22;6702;47.068;15.458;2022-12-18T10:54:16;2.50;99.10
13268;DHT22;6702;47.068;15.458;2022-12-18T10:57:34;2.50;99.20
13268;DHT22;6702;47.068;15.458;2022-12-18T11:00:38;2.30;99.30
13268;DHT22;6702;47.068;15.458;2022-12-18T11:03:42;2.40;99.50
13268;DHT22;6702;47.068;15.458;2022-12-18T11:06:58;2.40;99.20
13268;DHT22;6702;47.068;15.458;2022-12-18T11:10:02;2.30;99.20
13268;DHT22;6702;47.068;15.458;2022-12-18T11:13:17;2.40;99.60
13268;DHT22;6702;47.068;15.458;2022-12-18T11:16:21;2.40;99.60
13268;DHT22;6702;47.068;15.458;2022-12-18T11:19:33;2.40;99.90
13268;DHT22;6702;47.068;15.458;2022-12-18T11:22:37;2.30;99.90
13268;DHT22;6702;47.068;15.458;2022-12-18T11:25:51;2.20;99.90
13268;DHT22;6702;47.068;15.458;2022-12-18T11:29:09;1.90;99.90
13268;DHT22;6702;47.068;15.458;2022-12-18T11:32:31;1.90;99.90
13268;DHT22;6702;47.068;15.458;2022-12-18T11:35:40;1.80;99.90
13268;DHT22;6702;47.068;15.458;2022-12-18T11:38:46;1.70;99.90
13268;DHT22;6702;47.068;15.458;2022-12-18T11:41:54;1.50;99.90
13268;DHT22;6702;47.068;15.458;2022-12-18T11:45:31;1.40;99.90
13268;DHT22;6702;47.068;15.458;2022-12-18T11:48:40;1.50;99.90
13268;DHT22;6702;47.068;15.458;2022-12-18T11:51:49;1.50;99.90
13268;DHT22;6702;47.068;15.458;2022-12-18T11:54:56;1.50;99.90
13268;DHT22;6702;47.068;15.458;2022-12-18T11:58:07;1.50;99.90
13268;DHT22;6702;47.068;15.458;2022-12-18T12:01:31;1.50;99.90
13268;DHT22;6702;47.068;15.458;2022-12-18T12:05:00;1.40;99.90
13268;DHT22;6702;47.068;15.458;2022-12-18T12:08:14;1.40;99.90
13268;DHT22;6702;47.068;15.458;2022-12-18T12:11:22;1.40;99.90
13268;DHT22;6702;47.068;15.458;2022-12-18T12:14:39;1.20;99.90
13268;DHT22;6702;47.068;15.458;2022-12-18T12:17:50;1.30;99.90
13268;DHT22;6702;47.068;15.458;2022-12-18T12:21:03;1.30;99.90
13268;DHT22;6702;47.068;15.458;2022-12-18T12:24:23;1.10;99.90
13268;DHT22;6702;47.068;15.458;2022-12-18T12:27:36;1.20;99.90
13268;DHT22;6702;47.068;15.458;2022-12-18T12:30:51;1.00;99.90
13268;DHT22;6702;47.068;15.458;2022-12-18T12:34:06;1.10;99.90
13268;DHT22;6702;47.068;15.458;2022-12-18T12:37:20;1.10;99.90
13268;DHT22;6702;47.068;15.458;2022-12-18T12:40:29;1.20;99.90
13268;DHT22;6702;47.068;15.458;2022-12-18T12:43:56;1.20;99.90
13268;DHT22;6702;47.068;15.458;2022-12-18T12:47:04;1.10;99.90
13268;DHT22;6702;47.068;15.458;2022-12-18T12:50:15;1.20;99.90
13268;DHT22;6702;47.068;15.458;2022-12-18T12:53:25;1.30;99.90
13268;DHT22;6702;47.068;15.458;2022-12-18T12:56:38;1.30;99.90
13268;DHT22;6702;47.068;15.458;2022-12-18T12:59:47;1.30;99.90
13268;DHT22;6702;47.068;15.458;2022-12-18T13:03:01;1.20;99.90
13268;DHT22;6702;47.068;15.458;2022-12-18T13:06:12;1.20;99.90
13268;DHT22;6702;47.068;15.458;2022-12-18T13:09:20;1.20;99.90
13268;DHT22;6702;47.068;15.458;2022-12-18T13:12:24;1.30;99.90
13268;DHT22;6702;47.068;15.458;2022-12-18T13:15:43;1.40;99.90
13268;DHT22;6702;47.068;15.458;2022-12-18T13:18:51;1.50;99.90
13268;DHT22;6702;47.068;15.458;2022-12-18T13:21:57;1.50;99.90
13268;DHT22;6702;47.068;15.458;2022-12-18T13:25:00;1.50;99.90
13268;DHT22;6702;47.068;15.458;2022-12-18T13:28:10;1.60;99.90
13268;DHT22;6702;47.068;15.458;2022-12-18T13:39:11;1.50;99.90
13268;DHT22;6702;47.068;15.458;2022-12-18T13:42:47;1.30;99.90
13268;DHT22;6702;47.068;15.458;2022-12-18T13:46:27;1.40;99.90
13268;DHT22;6702;47.068;15.458;2022-12-18T13:49:37;1.40;99.90
13268;DHT22;6702;47.068;15.458;2022-12-18T13:52:43;1.40;99.90
13268;DHT22;6702;47.068;15.458;2022-12-18T13:55:49;1.30;99.90
13268;DHT22;6702;47.068;15.458;2022-12-18T13:59:15;1.40;99.90
13268;DHT22;6702;47.068;15.458;2022-12-18T14:02:22;1.40;99.90
13268;DHT22;6702;47.068;15.458;2022-12-18T14:05:27;1.30;99.90
13268;DHT22;6702;47.068;15.458;2022-12-18T14:08:38;1.30;99.90
13268;DHT22;6702;47.068;15.458;2022-12-18T14:11:48;1.20;99.90
13268;DHT22;6702;47.068;15.458;2022-12-18T14:14:52;1.20;99.90
13268;DHT22;6702;47.068;15.458;2022-12-18T14:17:58;1.30;99.90
13268;DHT22;6702;47.068;15.458;2022-12-18T14:21:04;1.40;99.90
13268;DHT22;6702;47.068;15.458;2022-12-18T14:24:15;1.30;99.90
13268;DHT22;6702;47.068;15.458;2022-12-18T14:27:24;1.20;99.90
13268;DHT22;6702;47.068;15.458;2022-12-18T14:30:30;1.20;99.90
13268;DHT22;6702;47.068;15.458;2022-12-18T14:33:34;1.10;99.90
13268;DHT22;6702;47.068;15.458;2022-12-18T14:36:37;1.00;99.90
13268;DHT22;6702;47.068;15.458;2022-12-18T14:39:52;0.80;99.90
13268;DHT22;6702;47.068;15.458;2022-12-18T14:42:57;0.80;99.90
13268;DHT22;6702;47.068;15.458;2022-12-18T14:46:01;0.90;99.90
13268;DHT22;6702;47.068;15.458;2022-12-18T14:49:19;1.00;99.90
13268;DHT22;6702;47.068;15.458;2022-12-18T14:52:27;1.10;99.90
13268;DHT22;6702;47.068;15.458;2022-12-18T14:55:34;1.20;99.90
13268;DHT22;6702;47.068;15.458;2022-12-18T14:58:39;1.30;99.90
13268;DHT22;6702;47.068;15.458;2022-12-18T15:01:49;1.30;99.90
13268;DHT22;6702;47.068;15.458;2022-12-18T15:05:01;1.30;99.90
13268;DHT22;6702;47.068;15.458;2022-12-18T15:08:31;1.20;99.90
13268;DHT22;6702;47.068;15.458;2022-12-18T15:11:45;1.20;99.90
13268;DHT22;6702;47.068;15.458;2022-12-18T15:15:01;1.20;99.90
13268;DHT22;6702;47.068;15.458;2022-12-18T15:18:12;1.20;99.90
13268;DHT22;6702;47.068;15.458;2022-12-18T15:21:19;1.10;99.90
13268;DHT22;6702;47.068;15.458;2022-12-18T15:24:27;1.10;99.90
13268;DHT22;6702;47.068;15.458;2022-12-18T15:27:35;1.20;99.90
13268;DHT22;6702;47.068;15.458;2022-12-18T15:30:58;1.10;99.90
13268;DHT22;6702;47.068;15.458;2022-12-18T15:34:14;1.00;99.90
13268;DHT22;6702;47.068;15.458;2022-12-18T15:37:22;1.00;99.90
13268;DHT22;6702;47.068;15.458;2022-12-18T15:40:26;1.10;99.90
13268;DHT22;6702;47.068;15.458;2022-12-18T15:43:31;1.10;99.90
13268;DHT22;6702;47.068;15.458;2022-12-18T15:46:41;1.10;99.90
13268;DHT22;6702;47.068;15.458;2022-12-18T15:49:45;1.10;99.90
13268;DHT22;6702;47.068;15.458;2022-12-18T15:52:52;1.10;99.90
13268;DHT22;6702;47.068;15.458;2022-12-18T15:55:57;1.10;99.90
13268;DHT22;6702;47.068;15.458;2022-12-18T15:59:22;1.00;99.90
13268;DHT22;6702;47.068;15.458;2022-12-18T16:02:28;1.00;99.90
13268;DHT22;6702;47.068;15.458;2022-12-18T16:05:33;1.10;99.90
13268;DHT22;6702;47.068;15.458;2022-12-18T16:08:37;1.00;99.90
13268;DHT22;6702;47.068;15.458;2022-12-18T16:11:43;1.00;99.90
13268;DHT22;6702;47.068;15.458;2022-12-18T16:14:50;0.90;99.90
13268;DHT22;6702;47.068;15.458;2022-12-18T16:17:58;0.90;99.90
13268;DHT22;6702;47.068;15.458;2022-12-18T16:21:03;0.90;99.90
13268;DHT22;6702;47.068;15.458;2022-12-18T16:24:14;0.90;99.90
13268;DHT22;6702;47.068;15.458;2022-12-18T16:27:20;0.60;99.90
13268;DHT22;6702;47.068;15.458;2022-12-18T16:30:28;0.80;99.90
13268;DHT22;6702;47.068;15.458;2022-12-18T16:33:40;0.90;99.90
13268;DHT22;6702;47.068;15.458;2022-12-18T16:36:46;1.10;99.90
13268;DHT22;6702;47.068;15.458;2022-12-18T16:39:50;1.10;99.90
13268;DHT22;6702;47.068;15.458;2022-12-18T16:42:55;1.20;99.90
13268;DHT22;6702;47.068;15.458;2022-12-18T16:45:59;1.30;99.90
13268;DHT22;6702;47.068;15.458;2022-12-18T16:49:07;1.40;99.90
13268;DHT22;6702;47.068;15.458;2022-12-18T16:52:12;1.50;99.90
13268;DHT22;6702;47.068;15.458;2022-12-18T16:55:17;1.50;99.90
13268;DHT22;6702;47.068;15.458;2022-12-18T16:58:22;1.50;99.90
13268;DHT22;6702;47.068;15.458;2022-12-18T17:01:29;1.60;99.90
13268;DHT22;6702;47.068;15.458;2022-12-18T17:04:35;1.60;99.90
13268;DHT22;6702;47.068;15.458;2022-12-18T17:07:40;1.70;99.90
13268;DHT22;6702;47.068;15.458;2022-12-18T17:10:45;1.60;99.90
13268;DHT22;6702;47.068;15.458;2022-12-18T17:13:50;1.60;99.90
13268;DHT22;6702;47.068;15.458;2022-12-18T17:16:55;1.50;99.90
13268;DHT22;6702;47.068;15.458;2022-12-18T17:20:24;1.60;99.90
13268;DHT22;6702;47.068;15.458;2022-12-18T17:23:31;1.50;99.90
13268;DHT22;6702;47.068;15.458;2022-12-18T17:26:37;1.60;99.90
13268;DHT22;6702;47.068;15.458;2022-12-18T17:29:45;1.60;99.90
13268;DHT22;6702;47.068;15.458;2022-12-18T17:32:50;1.70;99.90
13268;DHT22;6702;47.068;15.458;2022-12-18T17:35:57;1.60;99.90
13268;DHT22;6702;47.068;15.458;2022-12-18T17:39:02;1.70;99.90
13268;DHT22;6702;47.068;15.458;2022-12-18T17:42:07;1.70;99.90
13268;DHT22;6702;47.068;15.458;2022-12-18T17:45:16;1.70;99.90
13268;DHT22;6702;47.068;15.458;2022-12-18T17:48:22;1.70;99.90
13268;DHT22;6702;47.068;15.458;2022-12-18T17:51:30;1.60;99.90
13268;DHT22;6702;47.068;15.458;2022-12-18T17:54:34;1.70;99.90
13268;DHT22;6702;47.068;15.458;2022-12-18T17:57:41;1.70;99.90
13268;DHT22;6702;47.068;15.458;2022-12-18T18:00:45;1.70;99.90
13268;DHT22;6702;47.068;15.458;2022-12-18T18:03:51;1.70;99.90
13268;DHT22;6702;47.068;15.458;2022-12-18T18:06:58;1.60;99.90
13268;DHT22;6702;47.068;15.458;2022-12-18T18:10:03;1.70;99.90
13268;DHT22;6702;47.068;15.458;2022-12-18T18:13:17;1.70;99.90
13268;DHT22;6702;47.068;15.458;2022-12-18T18:16:49;1.70;99.90
13268;DHT22;6702;47.068;15.458;2022-12-18T18:20:01;1.70;99.90
13268;DHT22;6702;47.068;15.458;2022-12-18T18:23:08;1.70;99.90
13268;DHT22;6702;47.068;15.458;2022-12-18T18:26:13;1.80;99.90
13268;DHT22;6702;47.068;15.458;2022-12-18T18:29:30;1.70;99.90
13268;DHT22;6702;47.068;15.458;2022-12-18T18:32:34;1.70;99.90
13268;DHT22;6702;47.068;15.458;2022-12-18T18:35:43;1.70;99.90
13268;DHT22;6702;47.068;15.458;2022-12-18T18:38:58;1.80;99.90
13268;DHT22;6702;47.068;15.458;2022-12-18T18:42:04;1.80;99.90
13268;DHT22;6702;47.068;15.458;2022-12-18T18:45:09;1.70;99.90
13268;DHT22;6702;47.068;15.458;2022-12-18T18:48:14;1.60;99.90
13268;DHT22;6702;47.068;15.458;2022-12-18T18:51:19;1.60;99.90
13268;DHT22;6702;47.068;15.458;2022-12-18T18:54:27;1.60;99.90
13268;DHT22;6702;47.068;15.458;2022-12-18T18:57:33;1.70;99.90
13268;DHT22;6702;47.068;15.458;2022-12-18T19:00:38;1.70;99.90
13268;DHT22;6702;47.068;15.458;2022-12-18T19:03:43;1.70;99.90
13268;DHT22;6702;47.068;15.458;2022-12-18T19:06:48;1.70;99.90
13268;DHT22;6702;47.068;15.458;2022-12-18T19:09:55;1.70;99.90
13268;DHT22;6702;47.068;15.458;2022-12-18T19:13:07;1.80;99.90
13268;DHT22;6702;47.068;15.458;2022-12-18T19:16:23;1.80;99.90
13268;DHT22;6702;47.068;15.458;2022-12-18T19:19:28;1.80;99.90
13268;DHT22;6702;47.068;15.458;2022-12-18T19:22:33;1.70;99.90
13268;DHT22;6702;47.068;15.458;2022-12-18T19:25:39;1.70;99.90
13268;DHT22;6702;47.068;15.458;2022-12-18T19:28:44;1.60;99.90
13268;DHT22;6702;47.068;15.458;2022-12-18T19:31:49;1.60;99.90
13268;DHT22;6702;47.068;15.458;2022-12-18T19:34:54;1.60;99.90
13268;DHT22;6702;47.068;15.458;2022-12-18T19:38:00;1.50;99.90
13268;DHT22;6702;47.068;15.458;2022-12-18T19:41:07;1.60;99.90
13268;DHT22;6702;47.068;15.458;2022-12-18T19:44:15;1.50;99.90
13268;DHT22;6702;47.068;15.458;2022-12-18T19:47:20;1.50;99.90
13268;DHT22;6702;47.068;15.458;2022-12-18T19:50:26;1.40;99.90
13268;DHT22;6702;47.068;15.458;2022-12-18T19:53:32;1.30;99.90
13268;DHT22;6702;47.068;15.458;2022-12-18T19:56:38;1.10;99.90
13268;DHT22;6702;47.068;15.458;2022-12-18T19:59:42;1.10;99.90
13268;DHT22;6702;47.068;15.458;2022-12-18T20:02:50;1.20;99.90
13268;DHT22;6702;47.068;15.458;2022-12-18T20:06:09;1.30;99.90